San Diego, California
Traffic Map
Current Weather Conditions
San Diego, California
Overcast
Overcast
67°
Feels Like: 67°
Wind Chill: 67° Ceiling: 14000
Heat Index: 67° Visibility: 10mi
Dew Point: 47° Wind: 0mph
Humidity: 49% Direction: ° ()
Pressure: 30.08in Gusts: 0mph
Raw Report DataKSAN 291751Z 00000KT 10SM BKN140 OVC220 19/08 A3008 RMK AO2 SLP184 T01940083 10200 20156 53012
Traffic Incident Summary
Active as of:
Severity:
Category:
InformationThere was an issue retrieving the traffic information for this location. Please try a different location or try again shortly.
Advertisements
Track Severe Weather on mobile